createdAt,value
2023-06-18T00:01:38.282Z,65.40
2023-06-18T00:04:06.397Z,65.30
2023-06-18T00:06:34.397Z,65.20
2023-06-18T00:09:02.646Z,65.30
2023-06-18T00:11:30.631Z,65.10
2023-06-18T00:13:58.594Z,65.60
2023-06-18T00:16:27.979Z,65.70
2023-06-18T00:18:56.037Z,65.30
2023-06-18T00:21:24.049Z,65.50
2023-06-18T00:23:52.056Z,65.70
2023-06-18T00:26:20.011Z,65.50
2023-06-18T00:28:50.055Z,65.50
2023-06-18T00:31:18.988Z,65.40
2023-06-18T00:33:48.370Z,65.70
2023-06-18T00:36:16.403Z,65.30
2023-06-18T00:38:47.087Z,65.60
2023-06-18T00:41:15.111Z,65.30
2023-06-18T00:43:43.089Z,65.60
2023-06-18T00:46:11.083Z,65.40
2023-06-18T00:48:41.509Z,65.40
2023-06-18T00:51:11.327Z,65.30
2023-06-18T00:53:39.269Z,65.30
2023-06-18T00:56:08.253Z,65.50
2023-06-18T00:58:37.511Z,65.80
2023-06-18T01:01:11.240Z,65.40
2023-06-18T01:03:40.678Z,65.50
2023-06-18T01:06:12.453Z,65.40
2023-06-18T01:08:41.591Z,65.70
2023-06-18T01:11:09.734Z,65.50
2023-06-18T01:13:40.970Z,66.10
2023-06-18T01:16:09.591Z,66.00
2023-06-18T01:18:40.962Z,65.80
2023-06-18T01:21:12.115Z,65.70
2023-06-18T01:23:50.335Z,65.60
2023-06-18T01:26:21.752Z,65.90
2023-06-18T01:28:52.599Z,65.70
2023-06-18T01:31:22.882Z,66.30
2023-06-18T01:33:52.450Z,65.70
2023-06-18T01:36:27.145Z,66.00
2023-06-18T01:38:55.111Z,66.00
2023-06-18T01:41:25.451Z,66.20
2023-06-18T01:43:54.967Z,65.90
2023-06-18T01:46:24.299Z,66.20
2023-06-18T01:48:53.772Z,66.70
2023-06-18T01:51:23.177Z,66.80
2023-06-18T01:53:51.483Z,66.60
2023-06-18T01:56:19.469Z,66.50
2023-06-18T01:58:47.604Z,66.50
2023-06-18T02:01:15.590Z,66.60
2023-06-18T02:03:43.699Z,66.60
2023-06-18T02:06:11.840Z,66.70
2023-06-18T02:08:41.222Z,66.60
2023-06-18T02:11:09.736Z,66.70
2023-06-18T02:13:37.699Z,66.60
2023-06-18T02:16:06.093Z,66.70
2023-06-18T02:18:34.092Z,66.60
2023-06-18T02:21:02.076Z,66.50
2023-06-18T02:23:30.107Z,66.60
2023-06-18T02:25:59.884Z,66.40
2023-06-18T02:28:27.952Z,66.00
2023-06-18T02:30:56.780Z,65.80
2023-06-18T02:33:24.972Z,65.80
2023-06-18T02:35:52.917Z,65.70
2023-06-18T02:38:21.445Z,65.70
2023-06-18T02:40:49.581Z,65.80
2023-06-18T02:43:19.773Z,65.80
2023-06-18T02:45:47.773Z,65.80
2023-06-18T02:48:15.804Z,65.80
2023-06-18T02:50:43.798Z,65.80
2023-06-18T02:53:11.762Z,65.80
2023-06-18T02:55:42.287Z,65.90
2023-06-18T02:58:20.139Z,65.80
2023-06-18T03:00:48.226Z,65.90
2023-06-18T03:03:16.386Z,65.80
2023-06-18T03:05:52.488Z,65.90
2023-06-18T03:08:20.759Z,66.00
2023-06-18T03:10:52.418Z,66.30
2023-06-18T03:13:22.122Z,66.00
2023-06-18T03:15:52.838Z,66.10
2023-06-18T03:18:22.018Z,66.00
2023-06-18T03:20:50.838Z,66.00
2023-06-18T03:23:20.364Z,66.00
2023-06-18T03:25:50.471Z,66.20
2023-06-18T03:28:27.650Z,66.20
2023-06-18T03:30:55.762Z,66.10
2023-06-18T03:33:24.141Z,66.10
2023-06-18T03:35:52.740Z,66.10
2023-06-18T03:38:20.731Z,66.10
2023-06-18T03:40:48.732Z,66.20
2023-06-18T03:43:18.270Z,66.20
2023-06-18T03:45:48.563Z,66.30
2023-06-18T03:48:16.900Z,66.30
2023-06-18T03:50:46.549Z,66.30
2023-06-18T03:53:14.820Z,66.40
2023-06-18T03:55:43.391Z,66.50
2023-06-18T03:58:15.767Z,66.40
2023-06-18T04:00:48.280Z,66.30
2023-06-18T04:03:16.364Z,66.30
2023-06-18T04:05:44.371Z,66.30
2023-06-18T04:08:13.452Z,66.30
2023-06-18T04:10:42.745Z,66.30
2023-06-18T04:13:11.881Z,66.30
2023-06-18T04:15:39.992Z,66.30
2023-06-18T04:18:09.387Z,66.70
2023-06-18T04:20:37.392Z,66.30
2023-06-18T04:23:05.855Z,66.30
2023-06-18T04:25:33.916Z,66.30
2023-06-18T04:28:03.984Z,66.20
2023-06-18T04:30:32.308Z,66.50
2023-06-18T04:33:01.577Z,66.90
2023-06-18T04:35:31.685Z,66.60
2023-06-18T04:38:01.077Z,66.50
2023-06-18T04:40:29.700Z,66.50
2023-06-18T04:42:57.724Z,66.50
2023-06-18T04:45:32.201Z,66.40
2023-06-18T04:48:01.145Z,66.40
2023-06-18T04:50:30.894Z,66.40
2023-06-18T04:52:59.103Z,66.40
2023-06-18T04:55:28.700Z,66.40
2023-06-18T04:57:57.305Z,66.40
2023-06-18T05:00:25.495Z,66.40
2023-06-18T05:02:54.927Z,66.50
2023-06-18T05:05:23.584Z,66.40
2023-06-18T05:07:54.626Z,66.50
2023-06-18T05:10:24.645Z,66.60
2023-06-18T05:12:53.040Z,66.60
2023-06-18T05:15:21.716Z,66.60
2023-06-18T05:17:49.855Z,66.80
2023-06-18T05:20:19.690Z,66.90
2023-06-18T05:22:47.868Z,66.80
2023-06-18T05:25:18.487Z,67.30
2023-06-18T05:27:46.475Z,67.10
2023-06-18T05:30:14.653Z,66.90
2023-06-18T05:32:42.913Z,67.00
2023-06-18T05:35:15.308Z,66.80
2023-06-18T05:37:48.734Z,66.90
2023-06-18T05:40:18.090Z,67.10
2023-06-18T05:42:47.439Z,67.40
2023-06-18T05:45:15.941Z,67.50
2023-06-18T05:47:46.624Z,67.30
2023-06-18T05:50:21.909Z,67.60
2023-06-18T05:52:50.238Z,67.60
2023-06-18T05:55:19.722Z,67.70
2023-06-18T05:57:48.734Z,67.50
2023-06-18T06:00:17.390Z,67.40
2023-06-18T06:02:47.034Z,67.50
2023-06-18T06:05:21.675Z,67.70
2023-06-18T06:07:50.680Z,67.60
2023-06-18T06:10:21.120Z,67.60
2023-06-18T06:12:51.041Z,67.80
2023-06-18T06:15:19.378Z,67.60
2023-06-18T06:17:47.884Z,67.80
2023-06-18T06:20:16.710Z,67.90
2023-06-18T06:22:44.724Z,67.90
2023-06-18T06:25:12.713Z,67.70
2023-06-18T06:27:44.125Z,67.70
2023-06-18T06:30:12.846Z,67.90
2023-06-18T06:32:40.946Z,67.90
2023-06-18T06:35:09.480Z,67.70
2023-06-18T06:37:38.072Z,67.80
2023-06-18T06:40:09.663Z,67.90
2023-06-18T06:42:39.386Z,67.70
2023-06-18T06:45:33.230Z,67.90
2023-06-18T06:48:08.674Z,68.00
2023-06-18T06:50:49.009Z,68.00
2023-06-18T06:53:22.348Z,68.00
2023-06-18T06:55:50.654Z,68.00
2023-06-18T06:58:20.773Z,68.10
2023-06-18T07:00:50.220Z,68.20
2023-06-18T07:03:18.803Z,68.20
2023-06-18T07:05:46.834Z,68.20
2023-06-18T07:08:14.802Z,68.40
2023-06-18T07:10:46.001Z,68.40
2023-06-18T07:13:15.004Z,68.30
2023-06-18T07:15:44.369Z,68.20
2023-06-18T07:18:16.362Z,68.10
2023-06-18T07:20:44.331Z,68.20
2023-06-18T07:23:12.346Z,68.00
2023-06-18T07:25:40.506Z,67.80
2023-06-18T07:28:08.453Z,67.50
2023-06-18T07:30:36.469Z,67.20
2023-06-18T07:33:04.592Z,67.20
2023-06-18T07:35:33.959Z,67.20
2023-06-18T07:38:01.960Z,67.10
2023-06-18T07:40:34.280Z,66.70
2023-06-18T07:43:03.359Z,66.60
2023-06-18T07:45:31.296Z,66.60
2023-06-18T07:47:59.289Z,66.80
2023-06-18T07:50:27.346Z,66.90
2023-06-18T07:52:56.660Z,66.80
2023-06-18T07:55:24.908Z,66.90
2023-06-18T07:57:52.885Z,66.80
2023-06-18T08:00:21.246Z,66.80
2023-06-18T08:02:49.508Z,66.70
2023-06-18T08:05:17.486Z,66.70
2023-06-18T08:07:45.534Z,66.60
2023-06-18T08:10:14.858Z,66.50
2023-06-18T08:12:43.242Z,66.50
2023-06-18T08:15:12.495Z,66.60
2023-06-18T08:17:40.452Z,66.80
2023-06-18T08:20:09.572Z,66.70
2023-06-18T08:22:38.326Z,66.70
2023-06-18T08:25:07.852Z,66.70
2023-06-18T08:27:37.266Z,66.90
2023-06-18T08:30:06.446Z,67.10
2023-06-18T08:32:34.531Z,67.00
2023-06-18T08:35:03.177Z,66.90
2023-06-18T08:37:31.188Z,67.10
2023-06-18T08:39:59.207Z,67.10
2023-06-18T08:42:27.160Z,67.10
2023-06-18T08:44:56.461Z,67.20
2023-06-18T08:47:24.671Z,67.10
2023-06-18T08:49:53.112Z,67.10
2023-06-18T08:52:21.484Z,67.10
2023-06-18T08:54:52.416Z,67.10
2023-06-18T08:57:23.214Z,67.00
2023-06-18T08:59:51.168Z,67.00
2023-06-18T09:02:22.467Z,66.90
2023-06-18T09:04:51.161Z,66.90
2023-06-18T09:07:19.247Z,66.90
2023-06-18T09:09:47.295Z,66.90
2023-06-18T09:12:15.903Z,66.80
2023-06-18T09:14:43.887Z,66.80
2023-06-18T09:17:11.924Z,66.70
2023-06-18T09:19:41.378Z,66.70
2023-06-18T09:22:16.371Z,66.70
2023-06-18T09:24:47.620Z,66.60
2023-06-18T09:27:15.605Z,66.70
2023-06-18T09:29:43.765Z,67.00
2023-06-18T09:32:12.466Z,67.90
2023-06-18T09:34:41.986Z,66.90
2023-06-18T09:37:11.160Z,66.90
2023-06-18T09:39:41.086Z,67.20
2023-06-18T09:42:10.376Z,67.20
2023-06-18T09:44:38.383Z,67.20
2023-06-18T09:47:12.177Z,67.30
2023-06-18T09:49:46.859Z,67.20
2023-06-18T09:52:17.317Z,67.30
2023-06-18T09:54:46.060Z,67.30
2023-06-18T09:57:16.270Z,67.40
2023-06-18T09:59:44.302Z,67.30
2023-06-18T10:02:14.900Z,67.20
2023-06-18T10:04:43.256Z,67.30
2023-06-18T10:07:17.136Z,67.20
2023-06-18T10:09:47.867Z,67.20
2023-06-18T10:12:16.430Z,67.10
2023-06-18T10:14:44.410Z,67.30
2023-06-18T10:17:13.841Z,67.20
2023-06-18T10:19:46.937Z,67.10
2023-06-18T10:22:16.989Z,67.10
2023-06-18T10:24:48.608Z,67.00
2023-06-18T10:27:16.674Z,67.90
2023-06-18T10:29:44.653Z,66.80
2023-06-18T10:32:12.673Z,66.60
2023-06-18T10:34:41.459Z,66.50
2023-06-18T10:37:09.892Z,66.40
2023-06-18T10:39:39.287Z,66.20
2023-06-18T10:42:13.482Z,66.20
2023-06-18T10:44:51.887Z,66.20
2023-06-18T10:47:21.377Z,65.40
2023-06-18T10:50:11.471Z,65.50
2023-06-18T10:52:40.212Z,65.80
2023-06-18T10:55:09.766Z,65.80
2023-06-18T10:57:39.561Z,65.70
2023-06-18T11:00:27.716Z,66.80
2023-06-18T11:03:00.152Z,65.90
2023-06-18T11:05:47.642Z,65.80
2023-06-18T11:08:16.262Z,65.80
2023-06-18T11:10:48.517Z,66.20
2023-06-18T11:13:16.972Z,66.40
2023-06-18T11:15:55.475Z,66.70
2023-06-18T11:18:26.817Z,66.80
2023-06-18T11:20:55.471Z,66.70
2023-06-18T11:23:23.896Z,67.00
2023-06-18T11:25:53.308Z,66.90
2023-06-18T11:28:21.912Z,66.90
2023-06-18T11:30:50.551Z,67.00
2023-06-18T11:33:24.753Z,67.00
2023-06-18T11:35:52.784Z,67.00
2023-06-18T11:38:21.005Z,67.00
2023-06-18T11:40:54.584Z,66.90
2023-06-18T11:43:22.619Z,67.40
2023-06-18T11:45:51.082Z,67.40
2023-06-18T11:48:19.210Z,67.80
2023-06-18T11:50:48.651Z,67.70
2023-06-18T11:53:16.636Z,67.50
2023-06-18T11:55:44.610Z,67.30
2023-06-18T11:58:13.922Z,67.20
2023-06-18T12:00:41.875Z,67.20
2023-06-18T12:03:09.903Z,67.20
2023-06-18T12:05:37.995Z,67.30
2023-06-18T12:08:10.584Z,67.20
2023-06-18T12:10:38.715Z,67.40
2023-06-18T12:13:10.959Z,67.30
2023-06-18T12:15:44.085Z,67.50
2023-06-18T12:18:15.976Z,67.50
2023-06-18T12:20:43.959Z,67.50
2023-06-18T12:23:12.806Z,67.50
2023-06-18T12:25:40.768Z,67.00
2023-06-18T12:28:10.290Z,66.80
2023-06-18T12:30:40.773Z,67.00
2023-06-18T12:33:10.439Z,66.90
2023-06-18T12:35:41.332Z,66.60
2023-06-18T12:38:10.512Z,66.80
2023-06-18T12:40:47.648Z,67.00
2023-06-18T12:43:17.165Z,66.60
2023-06-18T12:45:47.152Z,66.30
2023-06-18T12:48:15.927Z,66.20
2023-06-18T12:50:45.700Z,66.20
2023-06-18T12:53:18.050Z,66.20
2023-06-18T12:55:47.293Z,66.20
2023-06-18T12:58:19.803Z,66.50
2023-06-18T13:00:49.366Z,66.70
2023-06-18T13:03:18.209Z,66.70
2023-06-18T13:05:48.032Z,66.70
2023-06-18T13:08:17.602Z,65.90
2023-06-18T13:10:46.390Z,65.90
2023-06-18T13:13:17.407Z,66.20
2023-06-18T13:15:45.695Z,66.20
2023-06-18T13:18:15.793Z,66.50
2023-06-18T13:21:26.523Z,66.40
2023-06-18T13:23:54.560Z,66.30
2023-06-18T13:26:22.740Z,66.30
2023-06-18T13:28:50.704Z,66.30
2023-06-18T13:31:18.703Z,66.20
2023-06-18T13:33:48.037Z,66.20
2023-06-18T13:36:16.054Z,66.10
2023-06-18T13:38:44.032Z,66.00
2023-06-18T13:41:12.035Z,66.00
2023-06-18T13:43:40.109Z,66.00
2023-06-18T13:46:08.176Z,65.90
2023-06-18T13:48:36.241Z,65.90
2023-06-18T13:51:05.653Z,65.90
2023-06-18T13:53:34.290Z,66.00
2023-06-18T13:56:03.091Z,66.00
2023-06-18T13:58:31.125Z,66.10
2023-06-18T14:00:59.069Z,66.00
2023-06-18T14:03:27.222Z,65.90
2023-06-18T14:05:56.058Z,65.80
2023-06-18T14:08:25.468Z,65.80
2023-06-18T14:10:53.670Z,65.70
2023-06-18T14:13:22.155Z,65.60
2023-06-18T14:15:50.230Z,65.50
2023-06-18T14:18:18.197Z,65.60
2023-06-18T14:20:46.120Z,65.60
2023-06-18T14:23:14.227Z,65.60
2023-06-18T14:25:43.923Z,65.40
2023-06-18T14:28:12.008Z,65.50
2023-06-18T14:30:39.996Z,65.60
2023-06-18T14:33:08.009Z,65.60
2023-06-18T14:35:36.092Z,65.80
2023-06-18T14:38:04.123Z,65.70
2023-06-18T14:40:32.121Z,65.70
2023-06-18T14:43:01.407Z,65.70
2023-06-18T14:45:29.453Z,65.60
2023-06-18T14:47:57.448Z,65.50
2023-06-18T14:50:25.656Z,65.40
2023-06-18T14:52:54.279Z,65.30
2023-06-18T14:55:22.587Z,65.40
2023-06-18T14:57:50.757Z,65.30
2023-06-18T15:00:20.295Z,65.50
2023-06-18T15:02:48.443Z,65.50
2023-06-18T15:05:16.496Z,65.80
2023-06-18T15:07:44.466Z,65.60
2023-06-18T15:10:12.684Z,65.50
2023-06-18T15:12:45.147Z,65.40
2023-06-18T15:15:13.222Z,65.50
2023-06-18T15:17:43.202Z,65.40
2023-06-18T15:20:11.907Z,65.60
2023-06-18T15:22:39.873Z,65.60
2023-06-18T15:25:08.388Z,65.50
2023-06-18T15:27:37.352Z,65.60
2023-06-18T15:30:06.631Z,65.50
2023-06-18T15:32:34.668Z,65.50
2023-06-18T15:35:04.025Z,65.20
2023-06-18T15:37:31.962Z,65.20
2023-06-18T15:40:00.013Z,65.10
2023-06-18T15:42:28.017Z,65.00
2023-06-18T15:44:55.960Z,64.80
2023-06-18T15:47:24.050Z,64.40
2023-06-18T15:49:52.070Z,64.40
2023-06-18T15:52:22.760Z,64.40
2023-06-18T15:54:51.188Z,64.60
2023-06-18T15:57:19.720Z,64.70
2023-06-18T15:59:47.684Z,64.70
2023-06-18T16:02:15.676Z,64.70
2023-06-18T16:04:43.750Z,64.70
2023-06-18T16:07:11.737Z,64.60
2023-06-18T16:09:41.051Z,64.80
2023-06-18T16:12:09.841Z,64.70
2023-06-18T16:14:37.834Z,64.80
2023-06-18T16:17:06.145Z,64.60
2023-06-18T16:19:34.267Z,64.40
2023-06-18T16:22:02.557Z,64.40
2023-06-18T16:24:31.318Z,64.40
2023-06-18T16:27:03.068Z,64.20
2023-06-18T16:29:31.037Z,64.00
2023-06-18T16:31:59.012Z,63.90
2023-06-18T16:34:26.984Z,63.90
2023-06-18T16:36:54.956Z,63.90
2023-06-18T16:39:22.911Z,63.90
2023-06-18T16:41:50.866Z,63.90
2023-06-18T16:44:20.565Z,63.90
2023-06-18T16:46:49.038Z,63.80
2023-06-18T16:49:17.086Z,63.80
2023-06-18T16:51:47.810Z,63.70
2023-06-18T16:54:15.969Z,63.80
2023-06-18T16:56:49.657Z,63.90
2023-06-18T16:59:18.184Z,63.90
2023-06-18T17:01:50.266Z,64.50
2023-06-18T17:04:18.871Z,64.80
2023-06-18T17:06:46.817Z,65.30
2023-06-18T17:09:14.838Z,65.50
2023-06-18T17:11:42.834Z,65.60
2023-06-18T17:14:10.900Z,65.70
2023-06-18T17:16:38.926Z,65.40
2023-06-18T17:19:08.323Z,65.50
2023-06-18T17:21:36.307Z,65.50
2023-06-18T17:24:04.350Z,65.40
2023-06-18T17:26:33.465Z,65.50
2023-06-18T17:29:01.429Z,65.50
2023-06-18T17:31:29.403Z,65.70
2023-06-18T17:33:57.392Z,66.00
2023-06-18T17:36:26.685Z,65.50
2023-06-18T17:38:54.742Z,65.20
2023-06-18T17:41:22.817Z,65.30
2023-06-18T17:43:50.801Z,65.40
2023-06-18T17:46:18.952Z,65.40
2023-06-18T17:48:48.644Z,65.40
2023-06-18T17:51:16.890Z,65.30
2023-06-18T17:53:46.714Z,65.30
2023-06-18T17:56:14.698Z,65.30
2023-06-18T17:58:42.702Z,65.30
2023-06-18T18:01:12.216Z,65.20
2023-06-18T18:03:41.652Z,65.10
2023-06-18T18:06:12.131Z,65.10
2023-06-18T18:08:40.189Z,65.30
2023-06-18T18:11:09.480Z,65.40
2023-06-18T18:13:37.594Z,66.10
2023-06-18T18:16:05.909Z,65.80
2023-06-18T18:18:33.898Z,65.70
2023-06-18T18:21:01.865Z,65.50
2023-06-18T18:23:29.834Z,65.60
2023-06-18T18:26:10.115Z,66.20
2023-06-18T18:28:41.302Z,66.40
2023-06-18T18:31:09.413Z,66.70
2023-06-18T18:33:37.524Z,66.80
2023-06-18T18:36:06.517Z,66.90
2023-06-18T18:38:36.808Z,66.80
2023-06-18T18:41:04.781Z,66.80
2023-06-18T18:43:32.920Z,66.50
2023-06-18T18:46:02.311Z,66.60
2023-06-18T18:48:30.279Z,66.50
2023-06-18T18:50:58.431Z,66.60
2023-06-18T18:53:26.383Z,66.60
2023-06-18T18:55:56.380Z,66.70
2023-06-18T18:58:25.332Z,67.60
2023-06-18T19:00:53.298Z,66.60
2023-06-18T19:03:23.962Z,66.60
2023-06-18T19:05:52.425Z,66.60
2023-06-18T19:08:20.537Z,66.40
2023-06-18T19:10:48.497Z,66.20
2023-06-18T19:13:16.474Z,66.20
2023-06-18T19:15:44.644Z,66.10
2023-06-18T19:18:12.672Z,65.90
2023-06-18T19:20:42.344Z,65.70
2023-06-18T19:23:11.934Z,65.40
2023-06-18T19:25:40.110Z,65.30
2023-06-18T19:28:08.092Z,65.10
2023-06-18T19:30:36.162Z,64.90
2023-06-18T19:33:04.464Z,64.70
2023-06-18T19:35:32.492Z,64.40
2023-06-18T19:38:01.853Z,64.60
2023-06-18T19:40:29.824Z,64.80
2023-06-18T19:42:57.810Z,65.90
2023-06-18T19:45:26.009Z,65.80
2023-06-18T19:47:55.828Z,67.10
2023-06-18T19:50:24.317Z,66.20
2023-06-18T19:52:52.541Z,66.50
2023-06-18T19:55:22.368Z,66.50
2023-06-18T19:57:50.360Z,66.60
2023-06-18T20:00:19.356Z,66.70
2023-06-18T20:02:47.466Z,66.90
2023-06-18T20:05:15.670Z,66.90
2023-06-18T20:07:43.710Z,67.10
2023-06-18T20:10:11.981Z,67.90
2023-06-18T20:12:43.149Z,67.80
2023-06-18T20:15:12.378Z,67.80
2023-06-18T20:17:40.412Z,68.00
2023-06-18T20:20:09.769Z,68.00
2023-06-18T20:22:37.876Z,68.00
2023-06-18T20:25:06.425Z,68.20
2023-06-18T20:27:34.376Z,68.00
2023-06-18T20:30:03.730Z,67.60
2023-06-18T20:32:33.006Z,67.60
2023-06-18T20:35:01.899Z,67.80
2023-06-18T20:37:29.910Z,67.60
2023-06-18T20:39:57.851Z,67.30
2023-06-18T20:42:26.014Z,67.00
2023-06-18T20:44:54.018Z,66.90
2023-06-18T20:47:23.773Z,66.80
2023-06-18T20:49:51.909Z,66.80
2023-06-18T20:52:19.840Z,66.50
2023-06-18T20:54:47.794Z,66.40
2023-06-18T20:57:16.033Z,66.30
2023-06-18T20:59:47.515Z,66.00
2023-06-18T21:02:15.590Z,66.00
2023-06-18T21:04:44.897Z,65.80
2023-06-18T21:07:12.845Z,65.60
2023-06-18T21:09:40.796Z,65.30
2023-06-18T21:12:09.575Z,65.20
2023-06-18T21:14:37.635Z,65.00
2023-06-18T21:17:06.249Z,64.70
2023-06-18T21:19:34.249Z,64.70
2023-06-18T21:22:04.178Z,64.60
2023-06-18T21:24:32.255Z,64.50
2023-06-18T21:27:00.266Z,64.20
2023-06-18T21:29:28.232Z,64.10
2023-06-18T21:31:58.921Z,64.10
2023-06-18T21:34:27.402Z,64.10
2023-06-18T21:36:58.201Z,63.90
2023-06-18T21:39:27.848Z,63.70
2023-06-18T21:41:58.266Z,63.50
2023-06-18T21:44:26.368Z,64.00
2023-06-18T21:46:54.306Z,63.60
2023-06-18T21:49:22.233Z,64.10
2023-06-18T21:51:50.152Z,63.80
2023-06-18T21:54:18.136Z,64.00
2023-06-18T21:56:47.514Z,64.00
2023-06-18T21:59:15.513Z,63.90
2023-06-18T22:01:43.460Z,63.60
2023-06-18T22:04:11.414Z,63.50
2023-06-18T22:06:39.423Z,63.50
2023-06-18T22:09:07.392Z,63.40
2023-06-18T22:11:35.350Z,63.50
2023-06-18T22:14:04.645Z,63.60
2023-06-18T22:16:32.804Z,63.70
2023-06-18T22:19:10.221Z,63.70
2023-06-18T22:21:38.144Z,63.80
2023-06-18T22:24:06.971Z,63.90
2023-06-18T22:26:34.910Z,63.70
2023-06-18T22:29:04.347Z,63.80
2023-06-18T22:31:32.305Z,63.70
2023-06-18T22:34:01.285Z,63.70
2023-06-18T22:36:29.249Z,63.60
2023-06-18T22:38:57.203Z,63.60
2023-06-18T22:41:25.409Z,63.50
2023-06-18T22:43:53.328Z,63.30
2023-06-18T22:46:23.524Z,63.20
2023-06-18T22:48:51.585Z,63.10
2023-06-18T22:51:19.573Z,63.00
2023-06-18T22:53:47.543Z,62.90
2023-06-18T22:56:15.463Z,62.80
2023-06-18T22:58:43.410Z,62.60
2023-06-18T23:01:11.419Z,62.50
2023-06-18T23:03:40.795Z,62.40
2023-06-18T23:06:08.849Z,62.30
2023-06-18T23:08:36.772Z,62.20
2023-06-18T23:11:04.785Z,62.10
2023-06-18T23:13:32.877Z,62.00
2023-06-18T23:16:00.836Z,61.90
2023-06-18T23:18:28.761Z,61.80
2023-06-18T23:20:58.279Z,61.70
2023-06-18T23:23:29.688Z,61.80
2023-06-18T23:25:57.758Z,61.60
2023-06-18T23:28:26.021Z,61.40
2023-06-18T23:30:53.993Z,61.10
2023-06-18T23:33:21.996Z,61.00
2023-06-18T23:35:49.954Z,61.00
2023-06-18T23:38:19.240Z,61.00
2023-06-18T23:40:47.177Z,60.90
2023-06-18T23:43:15.215Z,60.80
2023-06-18T23:45:43.237Z,60.80
2023-06-18T23:48:11.183Z,60.80
2023-06-18T23:50:39.140Z,60.90
2023-06-18T23:53:07.162Z,60.90
2023-06-18T23:55:36.482Z,61.00
2023-06-18T23:58:04.412Z,61.00
